Time;durP1;ratioP1;P1;durP2;ratioP2;P2;SDS_P1;SDS_P2;PMS_P1;PMS_P2;Temp;Humidity;BMP_temperature;BMP_pressure;BME280_temperature;BME280_humidity;BME280_pressure;Samples;Min_cycle;Max_cycle;Signal;HPM_P1;HPM_P2
2022/09/25 00:00:32;;;;;;;47.25;28.15;;;;;;;6.06;100.00;97907.48;1757881;81;21007;-87
2022/09/25 00:02:59;;;;;;;46.73;28.73;;;;;;;6.07;100.00;97909.67;1757681;81;21089;-84
2022/09/25 00:05:25;;;;;;;46.25;27.10;;;;;;;6.08;100.00;97910.76;1757630;81;20967;-83
2022/09/25 00:07:51;;;;;;;45.48;26.75;;;;;;;6.08;100.00;97907.26;1757772;81;21027;-84
2022/09/25 00:10:17;;;;;;;46.13;26.73;;;;;;;6.07;100.00;97902.41;1757972;81;21294;-85
2022/09/25 00:12:43;;;;;;;47.35;28.02;;;;;;;6.07;100.00;97905.64;1757618;81;20938;-88
2022/09/25 00:15:10;;;;;;;39.05;25.17;;;;;;;6.10;100.00;97905.12;1757981;81;21002;-85
2022/09/25 00:17:36;;;;;;;42.98;25.05;;;;;;;6.10;100.00;97899.20;1757665;81;21019;-83
2022/09/25 00:20:02;;;;;;;38.63;24.77;;;;;;;6.10;100.00;97900.55;1747227;81;20999;-84
2022/09/25 00:22:29;;;;;;;41.88;25.25;;;;;;;6.08;100.00;97902.69;1738297;81;21783;-84
2022/09/25 00:24:55;;;;;;;38.15;25.30;;;;;;;6.07;100.00;97895.69;1754576;81;21017;-87
2022/09/25 00:27:21;;;;;;;43.02;26.37;;;;;;;6.09;100.00;97888.70;1754217;81;21032;-84
2022/09/25 00:29:47;;;;;;;40.23;23.65;;;;;;;6.08;100.00;97891.92;1754554;81;21056;-84
2022/09/25 00:32:14;;;;;;;44.98;26.23;;;;;;;6.09;100.00;97890.86;1754285;81;20944;-84
2022/09/25 00:34:40;;;;;;;37.95;24.40;;;;;;;6.11;100.00;97888.72;1754648;81;21047;-87
2022/09/25 00:37:06;;;;;;;49.13;28.00;;;;;;;6.13;100.00;97885.23;1749410;81;21004;-83
2022/09/25 00:39:32;;;;;;;44.40;25.77;;;;;;;6.13;100.00;97891.96;1754582;81;21702;-87
2022/09/25 00:41:58;;;;;;;39.67;22.82;;;;;;;6.14;100.00;97887.39;1750414;81;20986;-87
2022/09/25 00:44:59;;;;;;;41.83;25.35;;;;;;;6.13;100.00;97884.42;1733443;82;21060;-83
2022/09/25 00:47:49;;;;;;;43.52;24.92;;;;;;;6.13;100.00;97884.42;1667037;86;21141;-87
2022/09/25 00:50:32;;;;;;;34.75;23.35;;;;;;;6.13;100.00;97880.39;1733673;81;21422;-88
2022/09/25 00:53:04;;;;;;;39.90;22.60;;;;;;;6.13;100.00;97878.51;1764759;79;20993;-84
2022/09/25 00:55:32;;;;;;;35.58;22.42;;;;;;;6.13;100.00;97879.85;1764822;81;21056;-84
2022/09/25 00:57:57;;;;;;;39.67;23.83;;;;;;;6.14;100.00;97873.94;1764522;79;21001;-83
2022/09/25 01:00:23;;;;;;;47.98;26.12;;;;;;;6.15;100.00;97877.74;1764711;81;21373;-84
2022/09/25 01:02:52;;;;;;;42.48;25.00;;;;;;;6.16;100.00;97871.30;1764563;80;20944;-85
2022/09/25 01:05:27;;;;;;;;;;;;;;;6.19;100.00;97875.34;1767573;81;21445;-84
2022/09/25 01:07:52;;;;;;;37.45;24.02;;;;;;;6.14;100.00;97868.55;1764623;79;20170;-83
2022/09/25 01:10:19;;;;;;;39.42;23.80;;;;;;;6.17;100.00;97866.19;1764863;81;21416;-83
2022/09/25 01:12:47;;;;;;;38.60;23.85;;;;;;;6.19;100.00;97869.42;1764454;80;21490;-84
2022/09/25 01:15:16;;;;;;;32.33;21.30;;;;;;;6.20;100.00;97863.52;1764650;81;21004;-88
2022/09/25 01:18:03;;;;;;;34.08;22.07;;;;;;;6.19;100.00;97860.55;1764625;79;21044;-84
2022/09/25 01:20:53;;;;;;;38.50;21.45;;;;;;;6.19;100.00;97859.20;1763106;81;21076;-84
2022/09/25 01:23:39;;;;;;;33.53;22.05;;;;;;;6.20;100.00;97855.44;1781356;80;21242;-88
2022/09/25 01:26:19;;;;;;;34.95;23.07;;;;;;;6.21;100.00;97855.18;1792385;80;21877;-84
2022/09/25 01:29:02;;;;;;;36.00;20.97;;;;;;;6.25;100.00;97860.88;1792244;78;21437;-87
2022/09/25 01:31:45;;;;;;;39.50;22.80;;;;;;;6.27;100.00;97860.62;1792768;80;21644;-84
2022/09/25 01:34:32;;;;;;;41.83;24.00;;;;;;;6.29;100.00;97853.09;1792778;80;20989;-83
2022/09/25 01:37:30;;;;;;;40.63;23.07;;;;;;;6.31;100.00;97851.77;1793176;80;21016;-87
2022/09/25 01:40:04;;;;;;;41.15;21.75;;;;;;;6.30;100.00;97850.67;1793241;80;21133;-84
2022/09/25 01:42:42;;;;;;;34.30;20.65;;;;;;;6.28;100.00;97849.59;1792676;78;21041;-84
2022/09/25 01:45:15;;;;;;;33.20;20.40;;;;;;;6.27;100.00;97847.16;1746256;81;21012;-87
2022/09/25 01:47:41;;;;;;;30.92;19.55;;;;;;;6.29;100.00;97853.09;1730552;81;21079;-83
2022/09/25 01:50:21;;;;;;;37.13;20.27;;;;;;;6.31;100.00;97855.80;1757603;81;21594;-84
2022/09/25 01:52:50;;;;;;;28.47;18.37;;;;;;;6.33;100.00;97858.26;1757256;81;21075;-87
2022/09/25 01:55:23;;;;;;;;;;;;;;;6.35;100.00;97861.50;1760175;81;21071;-83
2022/09/25 01:57:54;;;;;;;30.75;18.92;;;;;;;6.35;100.00;97858.27;1756089;81;20154;-83
2022/09/25 02:00:21;;;;;;;35.20;20.97;;;;;;;6.33;100.00;97854.22;1757386;81;21440;-84
2022/09/25 02:03:01;;;;;;;31.52;19.48;;;;;;;6.34;100.00;97856.66;1757351;81;20984;-84
2022/09/25 02:05:31;;;;;;;36.63;20.60;;;;;;;6.35;100.00;97862.84;1756463;81;21073;-87
2022/09/25 02:08:02;;;;;;;29.85;19.80;;;;;;;6.32;100.00;97855.27;1757228;81;21004;-84
2022/09/25 02:10:37;;;;;;;31.23;21.05;;;;;;;6.30;100.00;97852.02;1757501;81;21023;-84
2022/09/25 02:13:09;;;;;;;33.73;22.42;;;;;;;6.30;100.00;97860.09;1757108;81;21012;-83
2022/09/25 02:15:49;;;;;;;33.65;20.25;;;;;;;6.27;100.00;97854.70;1757679;81;21004;-84
2022/09/25 02:21:29;;;;;;;32.13;19.48;;;;;;;6.17;100.00;97847.35;1757334;81;21055;-87
2022/09/25 02:24:24;;;;;;;31.80;19.15;;;;;;;6.20;100.00;97853.56;1754636;81;21037;-84
2022/09/25 02:26:51;;;;;;;33.48;20.72;;;;;;;6.17;100.00;97855.42;1754382;81;21115;-87
2022/09/25 02:29:17;;;;;;;35.88;21.50;;;;;;;6.18;100.00;97858.39;1754274;81;21020;-83
2022/09/25 02:31:57;;;;;;;31.82;19.00;;;;;;;6.18;100.00;97857.05;1754356;81;21702;-84
2022/09/25 02:34:22;;;;;;;32.88;19.60;;;;;;;6.17;100.00;97858.11;1754384;81;21023;-87
2022/09/25 02:36:49;;;;;;;34.88;22.85;;;;;;;6.17;100.00;97853.27;1754644;81;20940;-87
2022/09/25 02:39:18;;;;;;;34.45;19.73;;;;;;;6.19;100.00;97851.13;1754151;81;20969;-83
2022/09/25 02:41:52;;;;;;;34.48;20.37;;;;;;;6.22;100.00;97853.30;1754904;81;21036;-87
2022/09/25 02:44:43;;;;;;;29.95;20.25;;;;;;;6.24;100.00;97848.50;1757655;81;21848;-83
2022/09/25 02:47:43;;;;;;;27.90;18.37;;;;;;;6.26;100.00;97842.86;1757457;81;21035;-84
2022/09/25 02:50:35;;;;;;;31.17;19.77;;;;;;;6.28;100.00;97842.05;1757939;81;21039;-86
2022/09/25 02:53:15;;;;;;;27.05;18.05;;;;;;;6.32;100.00;97845.31;1757743;81;21031;-87
2022/09/25 02:56:03;;;;;;;28.80;18.07;;;;;;;6.37;100.00;97841.86;1755748;81;21097;-87
2022/09/25 02:58:45;;;;;;;27.07;16.07;;;;;;;6.37;100.00;97835.95;1728068;81;22843;-87
2022/09/25 03:01:14;;;;;;;26.80;16.42;;;;;;;6.37;100.00;97837.29;1757856;81;20983;-83
2022/09/25 03:03:40;;;;;;;28.50;17.07;;;;;;;6.40;100.00;97836.77;1757849;81;21554;-84
2022/09/25 03:06:06;;;;;;;31.60;18.20;;;;;;;6.43;100.00;97836.80;1757923;81;21039;-84
2022/09/25 03:08:37;;;;;;;26.52;18.10;;;;;;;6.45;100.00;97831.97;1757682;81;21077;-86
2022/09/25 03:11:11;;;;;;;25.43;15.25;;;;;;;6.46;100.00;97831.70;1757942;81;21151;-88
2022/09/25 03:13:37;;;;;;;27.32;15.90;;;;;;;6.49;100.00;97834.41;1756563;81;21006;-83
2022/09/25 03:16:29;;;;;;;25.35;16.32;;;;;;;6.55;100.00;97825.84;1757988;81;21019;-87
2022/09/25 03:18:55;;;;;;;24.05;14.78;;;;;;;6.56;100.00;97826.93;1757589;81;21078;-84
2022/09/25 03:21:21;;;;;;;23.02;15.83;;;;;;;6.58;100.00;97828.02;1757874;81;20986;-87
2022/09/25 03:23:47;;;;;;;24.23;16.62;;;;;;;6.59;100.00;97831.82;1754924;81;21254;-87
2022/09/25 03:26:13;;;;;;;22.62;14.47;;;;;;;6.61;100.00;97832.90;1754316;81;21674;-83
2022/09/25 03:28:38;;;;;;;22.77;14.93;;;;;;;6.62;100.00;97833.17;1754261;81;20991;-84
2022/09/25 03:31:06;;;;;;;25.57;15.53;;;;;;;6.62;100.00;97829.95;1754497;81;20912;-87
2022/09/25 03:33:38;;;;;;;27.05;16.40;;;;;;;6.65;100.00;97832.64;1754263;81;21005;-87
2022/09/25 03:36:11;;;;;;;25.23;16.05;;;;;;;6.65;100.00;97832.11;1754483;81;21139;-87
2022/09/25 03:38:38;;;;;;;25.95;16.62;;;;;;;6.60;100.00;97830.75;1754114;81;20992;-84
2022/09/25 03:41:07;;;;;;;24.63;16.50;;;;;;;6.57;100.00;97830.44;1754562;81;21485;-88
2022/09/25 03:43:32;;;;;;;27.73;17.43;;;;;;;6.56;100.00;97829.63;1757221;81;21015;-83
2022/09/25 03:45:58;;;;;;;29.35;17.12;;;;;;;6.56;100.00;97830.16;1757645;81;21752;-84
2022/09/25 03:48:24;;;;;;;23.57;15.10;;;;;;;6.54;100.00;97829.61;1757780;81;21322;-87
2022/09/25 03:50:50;;;;;;;29.30;18.42;;;;;;;6.54;100.00;97817.50;1757917;81;20998;-87
2022/09/25 03:53:17;;;;;;;23.32;15.48;;;;;;;6.55;100.00;97821.27;1757629;81;21669;-88
2022/09/25 03:55:47;;;;;;;25.88;16.77;;;;;;;6.58;100.00;97826.16;1728312;81;21070;-83
2022/09/25 03:58:13;;;;;;;26.80;16.00;;;;;;;6.58;100.00;97824.81;1757578;81;20987;-87
2022/09/25 04:00:40;;;;;;;29.87;17.37;;;;;;;6.58;100.00;97819.43;1757861;81;21515;-83
2022/09/25 04:03:06;;;;;;;24.90;16.70;;;;;;;6.58;100.00;97819.43;1758062;81;20988;-83
2022/09/25 04:05:32;;;;;;;26.33;16.48;;;;;;;6.59;100.00;97808.13;1757972;81;21716;-88
2022/09/25 04:07:59;;;;;;;22.90;14.58;;;;;;;6.59;100.00;97809.47;1757765;81;21017;-83
2022/09/25 04:10:26;;;;;;;22.87;15.50;;;;;;;6.58;100.00;97808.66;1758013;81;21014;-87
2022/09/25 04:12:53;;;;;;;27.17;16.97;;;;;;;6.61;100.00;97812.17;1757989;81;21309;-83
2022/09/25 04:15:23;;;;;;;23.05;16.10;;;;;;;6.64;100.00;97815.68;1758115;81;21007;-85
2022/09/25 04:17:50;;;;;;;26.90;13.58;;;;;;;6.65;100.00;97816.49;1758008;81;21003;-87
2022/09/25 04:20:16;;;;;;;22.58;14.50;;;;;;;6.66;100.00;97814.88;1758031;81;21026;-84
2022/09/25 04:22:42;;;;;;;20.97;13.65;;;;;;;6.67;100.00;97812.49;1756906;80;20901;-88
2022/09/25 04:25:08;;;;;;;24.57;16.05;;;;;;;6.67;100.00;97815.19;1754722;81;21076;-83
2022/09/25 04:27:35;;;;;;;25.27;16.60;;;;;;;6.70;100.00;97823.27;1754347;81;20980;-87
2022/09/25 04:30:03;;;;;;;24.00;17.37;;;;;;;6.70;100.00;97820.04;1754535;81;20993;-87
2022/09/25 04:35:13;;;;;;;23.52;14.65;;;;;;;6.74;100.00;97821.13;1754602;81;21048;-83
2022/09/25 04:37:39;;;;;;;26.33;16.90;;;;;;;6.78;100.00;97814.70;1724981;81;21096;-84
2022/09/25 04:40:07;;;;;;;21.15;15.25;;;;;;;6.81;100.00;97812.02;1754489;81;20885;-87
2022/09/25 04:42:33;;;;;;;21.00;14.38;;;;;;;6.86;100.00;97812.06;1756014;81;21157;-84
2022/09/25 04:44:59;;;;;;;21.97;14.43;;;;;;;6.91;100.00;97813.42;1757838;81;20947;-83
2022/09/25 04:47:28;;;;;;;24.10;15.08;;;;;;;6.93;100.00;97822.08;1758064;81;20974;-84
2022/09/25 04:49:54;;;;;;;24.90;17.32;;;;;;;6.95;100.00;97819.92;1758150;81;21816;-87
2022/09/25 04:52:19;;;;;;;21.97;14.90;;;;;;;6.95;100.00;97815.34;1757805;80;20880;-88
2022/09/25 04:54:46;;;;;;;21.30;14.50;;;;;;;7.00;100.00;97815.89;1758065;81;21039;-87
2022/09/25 04:57:18;;;;;;;23.35;13.88;;;;;;;7.03;100.00;97818.89;1757906;81;21499;-83
2022/09/25 04:59:44;;;;;;;22.35;14.43;;;;;;;7.06;100.00;97809.47;1757909;81;21082;-87
2022/09/25 05:02:11;;;;;;;22.62;13.90;;;;;;;7.11;100.00;97806.00;1757980;81;20973;-87
2022/09/25 05:04:38;;;;;;;17.82;12.60;;;;;;;7.15;100.00;97807.89;1757767;81;21007;-84
2022/09/25 05:07:04;;;;;;;15.63;12.35;;;;;;;7.18;100.00;97810.59;1757927;81;21018;-84
2022/09/25 05:09:30;;;;;;;20.60;12.50;;;;;;;7.24;100.00;97815.75;1757826;81;21531;-83
2022/09/25 05:11:56;;;;;;;22.58;13.22;;;;;;;7.25;100.00;97815.21;1758027;81;21042;-84
2022/09/25 05:14:22;;;;;;;25.55;15.65;;;;;;;7.23;100.00;97811.97;1757803;81;21310;-87
2022/09/25 05:16:49;;;;;;;21.10;13.35;;;;;;;7.24;100.00;97804.16;1757690;81;20999;-88
2022/09/25 05:19:14;;;;;;;18.20;11.70;;;;;;;7.30;100.00;97803.92;1757691;81;21006;-87
2022/09/25 05:21:41;;;;;;;18.73;13.13;;;;;;;7.37;100.00;97803.69;1758129;81;20887;-87
2022/09/25 05:24:08;;;;;;;17.87;12.43;;;;;;;7.41;100.00;97809.34;1754485;81;21048;-87
2022/09/25 05:26:36;;;;;;;21.80;12.15;;;;;;;7.44;100.00;97812.34;1754637;81;21066;-86
2022/09/25 05:29:02;;;;;;;20.60;14.63;;;;;;;7.50;100.00;97814.50;1754515;81;21068;-87
2022/09/25 05:31:28;;;;;;;19.17;13.43;;;;;;;7.60;100.00;97813.17;1754614;81;21009;-84
2022/09/25 05:33:54;;;;;;;19.17;12.90;;;;;;;7.66;100.00;97809.97;1764904;80;20877;-87
2022/09/25 05:36:20;;;;;;;22.60;13.22;;;;;;;7.74;100.00;97816.20;1779101;80;21001;-84
2022/09/25 05:38:47;;;;;;;22.60;14.50;;;;;;;7.76;100.00;97812.14;1778675;80;21827;-87
2022/09/25 05:41:13;;;;;;;21.87;13.43;;;;;;;7.81;100.00;97808.66;1778952;80;21028;-84
2022/09/25 05:43:42;;;;;;;17.48;11.73;;;;;;;7.85;100.00;97815.94;1751014;80;21241;-84
2022/09/25 05:46:09;;;;;;;18.42;12.73;;;;;;;7.92;100.00;97819.73;1747745;81;21051;-88
2022/09/25 05:48:35;;;;;;;16.95;11.93;;;;;;;7.95;100.00;97815.69;1747486;81;21393;-87
2022/09/25 05:51:01;;;;;;;18.10;12.20;;;;;;;8.01;100.00;97822.18;1747619;81;21090;-84
2022/09/25 05:53:27;;;;;;;16.77;11.50;;;;;;;8.03;100.00;97819.20;1747391;81;22447;-87
2022/09/25 05:55:57;;;;;;;15.13;10.10;;;;;;;8.11;100.00;97818.68;1747617;81;20985;-84
2022/09/25 05:58:24;;;;;;;15.98;10.75;;;;;;;8.13;100.00;97819.25;1747667;81;20996;-84
2022/09/25 06:00:49;;;;;;;18.80;12.03;;;;;;;8.15;100.00;97807.09;1747745;81;21067;-88
2022/09/25 06:03:16;;;;;;;16.55;10.95;;;;;;;8.23;100.00;97807.64;1747363;82;21044;-87
2022/09/25 06:05:45;;;;;;;20.15;11.85;;;;;;;8.31;100.00;97808.45;1747710;81;20980;-84
2022/09/25 06:08:10;;;;;;;15.43;10.72;;;;;;;8.41;100.00;97805.78;1747254;81;20996;-87
2022/09/25 06:10:36;;;;;;;15.18;11.15;;;;;;;8.50;100.00;97798.75;1747632;82;20846;-87
2022/09/25 06:13:03;;;;;;;16.30;10.72;;;;;;;8.55;100.00;97810.91;1747630;81;21055;-88
2022/09/25 06:15:36;;;;;;;13.55;9.73;;;;;;;8.58;100.00;97815.77;1747298;82;21448;-88
2022/09/25 06:18:04;;;;;;;14.53;10.10;;;;;;;8.63;100.00;97815.77;1747375;81;21000;-84
2022/09/25 06:20:31;;;;;;;13.88;10.53;;;;;;;8.68;100.00;97823.05;1747670;82;21452;-84
2022/09/25 06:22:57;;;;;;;27.67;10.82;;;;;;;8.71;100.00;97821.94;1758884;80;21044;-88
2022/09/25 06:25:25;;;;;;;15.32;11.28;;;;;;;8.78;100.00;97819.52;1773821;80;21005;-84
2022/09/25 06:27:54;;;;;;;18.45;12.07;;;;;;;8.88;100.00;97820.30;1773623;80;21457;-87
2022/09/25 06:30:21;;;;;;;18.32;11.05;;;;;;;8.92;100.00;97819.23;1773388;80;27345;-85
2022/09/25 06:32:48;;;;;;;16.73;10.93;;;;;;;8.98;100.00;97817.59;1773556;80;21075;-85
2022/09/25 06:35:14;;;;;;;20.52;15.28;;;;;;;9.07;100.00;97815.69;1773351;80;21028;-84
2022/09/25 06:37:40;;;;;;;24.47;18.67;;;;;;;9.15;100.00;97812.42;1773620;80;21052;-85
2022/09/25 06:40:07;;;;;;;23.10;18.65;;;;;;;9.19;100.00;97803.47;1773409;80;21247;-87
2022/09/25 06:42:34;;;;;;;21.12;16.73;;;;;;;9.31;100.00;97809.39;1766482;80;21012;-86
2022/09/25 06:45:00;;;;;;;26.93;17.40;;;;;;;9.42;100.00;97813.40;1757087;81;21059;-88
2022/09/25 06:47:26;;;;;;;41.10;26.45;;;;;;;9.54;100.00;97809.81;1757127;81;21464;-88
2022/09/25 06:49:52;;;;;;;70.05;50.88;;;;;;;9.65;100.00;97800.55;1757168;81;20880;-84
2022/09/25 06:52:19;;;;;;;35.50;27.93;;;;;;;9.78;100.00;97798.59;1757434;81;21253;-84
2022/09/25 06:54:45;;;;;;;27.85;21.65;;;;;;;9.89;100.00;97797.44;1757148;81;21052;-84
2022/09/25 06:57:11;;;;;;;31.57;24.67;;;;;;;9.99;100.00;97789.80;1757431;81;20988;-84
2022/09/25 06:59:38;;;;;;;29.60;25.15;;;;;;;10.11;100.00;97802.45;1757258;81;21437;-84
2022/09/25 07:04:51;;;;;;;28.83;23.62;;;;;;;10.34;100.00;97800.97;1757107;81;22177;-84
2022/09/25 07:07:20;;;;;;;41.02;19.25;;;;;;;10.52;100.00;97799.45;1757189;81;21131;-88
2022/09/25 07:09:49;;;;;;;;;;;;;;;10.67;100.00;97793.07;1759816;81;20980;-87
2022/09/25 07:12:17;;;;;;;46.28;40.63;;;;;;;10.82;100.00;97796.19;1757298;81;20647;-87
2022/09/25 07:14:45;;;;;;;32.75;28.47;;;;;;;10.92;100.00;97798.23;1757387;81;21043;-88
2022/09/25 07:17:13;;;;;;;29.92;16.17;;;;;;;11.09;100.00;97796.44;1757679;81;21722;-87
2022/09/25 07:19:39;;;;;;;23.35;13.40;;;;;;;11.23;100.00;97804.70;1757081;81;21090;-87
2022/09/25 07:22:05;;;;;;;15.85;10.68;;;;;;;11.28;100.00;97804.10;1758724;80;20881;-86
2022/09/25 07:24:31;;;;;;;24.67;16.20;;;;;;;11.38;100.00;97804.53;1773436;80;20897;-84
2022/09/25 07:26:57;;;;;;;23.40;13.38;;;;;;;11.52;100.00;97799.98;1773601;80;21024;-88
2022/09/25 07:29:23;;;;;;;12.60;9.75;;;;;;;11.53;100.00;97801.60;1773524;80;21144;-87
2022/09/25 07:31:49;;;;;;;22.77;12.73;;;;;;;11.47;100.00;97804.69;1726709;82;21025;-88
2022/09/25 07:34:15;;;;;;;18.95;10.78;;;;;;;11.42;100.00;97804.19;1718445;83;21579;-84
2022/09/25 07:36:41;;;;;;;13.32;9.85;;;;;;;11.40;100.00;97805.59;1718890;83;20874;-88
2022/09/25 07:39:08;;;;;;;15.85;10.08;;;;;;;11.36;100.00;97811.32;1718507;83;21506;-88
2022/09/25 07:41:33;;;;;;;18.12;9.75;;;;;;;11.27;100.00;97811.15;1719152;82;21144;-88
2022/09/25 07:44:00;;;;;;;15.60;12.90;;;;;;;11.19;100.00;97807.72;1733124;81;20895;-88
2022/09/25 07:46:27;;;;;;;18.05;12.03;;;;;;;11.13;100.00;97802.11;1733543;82;21038;-84
2022/09/25 07:48:53;;;;;;;20.65;12.13;;;;;;;11.13;100.00;97798.05;1733265;81;21450;-88
2022/09/25 07:51:22;;;;;;;19.70;11.70;;;;;;;11.13;100.00;97797.48;1734086;82;21066;-88
2022/09/25 07:53:48;;;;;;;14.30;9.83;;;;;;;11.20;100.00;97797.16;1733927;81;21133;-84
2022/09/25 07:56:14;;;;;;;33.00;20.37;;;;;;;11.30;100.00;97792.95;1733426;82;21021;-88
2022/09/25 07:58:40;;;;;;;16.62;12.13;;;;;;;11.42;100.00;97790.63;1733457;81;21667;-87
2022/09/25 08:01:08;;;;;;;17.87;10.48;;;;;;;11.48;100.00;97784.05;1712707;82;21093;-87
2022/09/25 08:03:34;;;;;;;16.55;9.05;;;;;;;11.55;100.00;97790.48;1733537;81;21061;-88
2022/09/25 08:06:04;;;;;;;13.65;9.75;;;;;;;11.59;100.00;97789.59;1733609;82;21001;-88
2022/09/25 08:08:30;;;;;;;24.20;13.65;;;;;;;11.70;100.00;97785.38;1733227;81;21042;-88
2022/09/25 08:11:01;;;;;;;21.42;13.70;;;;;;;11.75;100.00;97791.55;1733657;82;21573;-88
2022/09/25 08:13:28;;;;;;;25.60;16.97;;;;;;;11.79;100.00;97781.74;1733361;81;21514;-88
2022/09/25 08:15:55;;;;;;;28.75;16.73;;;;;;;11.85;100.00;97783.30;1733542;82;21038;-88
2022/09/25 08:18:21;;;;;;;33.35;22.58;;;;;;;11.94;100.00;97779.37;1733291;81;21959;-88
2022/09/25 08:20:47;;;;;;;24.65;14.73;;;;;;;12.02;100.00;97778.70;1702080;82;20891;-84
2022/09/25 08:23:13;;;;;;;21.70;13.18;;;;;;;12.07;100.00;97760.98;1733597;82;20965;-88
2022/09/25 08:25:38;;;;;;;20.75;13.75;;;;;;;12.17;100.00;97765.45;1733791;82;21012;-84
2022/09/25 08:28:05;;;;;;;14.55;8.48;;;;;;;12.24;100.00;97762.36;1734003;82;20990;-85
2022/09/25 08:30:31;;;;;;;15.00;9.85;;;;;;;12.27;100.00;97768.00;1733754;82;21895;-84
2022/09/25 08:32:57;;;;;;;17.02;12.82;;;;;;;12.30;100.00;97764.67;1733830;82;20982;-85
2022/09/25 08:35:24;;;;;;;29.63;23.60;;;;;;;12.41;100.00;97765.34;1733849;82;21006;-84
2022/09/25 08:37:50;;;;;;;14.63;10.65;;;;;;;12.55;100.00;97758.56;1733846;82;21512;-84
2022/09/25 08:40:25;;;;;;;17.90;10.95;;;;;;;12.66;100.00;97754.02;1702584;82;20981;-88
2022/09/25 08:42:52;;;;;;;14.50;9.78;;;;;;;12.86;100.00;97748.75;1733521;81;21462;-89
2022/09/25 08:50:53;;;;;;;29.50;15.80;;;;;;;13.22;98.29;97750.25;1670300;82;20995;-84
2022/09/25 08:53:23;;;;;;;13.43;9.55;;;;;;;13.13;96.79;97742.52;1733142;81;21491;-84
2022/09/25 08:58:43;;;;;;;14.93;10.32;;;;;;;13.09;96.97;97739.36;1733196;81;21070;-88
2022/09/25 09:01:06;;;;;;;10.53;7.08;;;;;;;13.12;97.55;97739.55;1732707;82;21490;-88
2022/09/25 09:03:33;;;;;;;28.62;16.00;;;;;;;13.30;95.83;97731.61;1733316;81;21046;-84
2022/09/25 09:06:06;;;;;;;22.35;15.43;;;;;;;13.51;95.46;97721.91;1733034;82;21077;-88
2022/09/25 09:08:34;;;;;;;12.70;9.08;;;;;;;13.70;95.97;97728.01;1731996;81;21082;-89
2022/09/25 09:11:05;;;;;;;14.75;10.13;;;;;;;13.82;95.45;97726.09;1733242;82;21002;-88
2022/09/25 09:13:44;;;;;;;13.15;10.08;;;;;;;13.93;93.76;97731.58;1733216;81;21022;-84
2022/09/25 09:16:43;;;;;;;16.93;10.80;;;;;;;14.00;93.86;97732.48;1733284;82;20998;-85
2022/09/25 09:19:10;;;;;;;15.95;9.05;;;;;;;13.95;92.48;97732.07;1733159;81;21065;-88
2022/09/25 09:22:11;;;;;;;16.73;10.88;;;;;;;13.88;92.10;97727.60;1704410;82;22078;-85
2022/09/25 09:25:08;;;;;;;17.10;11.95;;;;;;;13.80;92.62;97717.44;1734355;82;21058;-88
2022/09/25 09:28:09;;;;;;;13.50;10.17;;;;;;;13.82;93.50;97725.55;1734611;81;21079;-84
2022/09/25 09:30:40;;;;;;;19.37;12.33;;;;;;;13.87;93.99;97721.11;1757795;81;21210;-87
2022/09/25 09:33:47;;;;;;;19.92;11.73;;;;;;;13.87;94.02;97724.63;1757860;80;21021;-89
2022/09/25 09:36:37;;;;;;;17.77;10.70;;;;;;;13.89;93.79;97724.32;1757400;81;21076;-87
2022/09/25 09:39:11;;;;;;;22.22;13.88;;;;;;;13.93;93.18;97719.85;1757738;80;21012;-84
2022/09/25 09:41:57;;;;;;;17.95;11.12;;;;;;;13.86;93.85;97718.14;1757548;80;21016;-88
2022/09/25 09:44:41;;;;;;;15.30;9.23;;;;;;;13.81;93.96;97719.05;1738953;82;21521;-84
2022/09/25 09:47:37;;;;;;;18.77;12.40;;;;;;;13.79;93.20;97718.00;1737847;81;20993;-88
2022/09/25 09:50:35;;;;;;;14.85;10.60;;;;;;;13.71;93.29;97714.64;1738930;82;21888;-88
2022/09/25 09:53:11;;;;;;;15.38;11.55;;;;;;;13.67;94.57;97714.19;1739261;81;21032;-88
2022/09/25 09:55:50;;;;;;;15.20;11.15;;;;;;;13.74;95.00;97706.41;1739266;82;21022;-84
2022/09/25 09:59:02;;;;;;;19.48;11.60;;;;;;;13.80;94.71;97702.46;1740342;81;21016;-89
2022/09/25 10:01:35;;;;;;;21.73;11.90;;;;;;;13.79;94.99;97704.38;1675561;85;21518;-88
2022/09/25 10:04:05;;;;;;;21.42;13.55;;;;;;;13.87;95.61;97708.85;1715505;82;21206;-89
2022/09/25 10:06:36;;;;;;;15.83;11.43;;;;;;;13.97;95.38;97708.60;1717004;83;21020;-89
2022/09/25 10:09:02;;;;;;;15.88;12.07;;;;;;;14.07;94.83;97708.35;1734299;81;21076;-85
2022/09/25 10:11:30;;;;;;;15.60;11.45;;;;;;;14.16;95.25;97702.97;1739165;82;21434;-85
2022/09/25 10:13:56;;;;;;;13.90;11.48;;;;;;;14.27;95.09;97700.22;1739231;81;21023;-88
2022/09/25 10:16:22;;;;;;;15.55;10.75;;;;;;;14.39;94.93;97700.47;1738959;82;21802;-88
2022/09/25 10:19:20;;;;;;;14.38;10.50;;;;;;;14.51;94.60;97701.28;1739207;81;21049;-84
2022/09/25 10:22:02;;;;;;;16.60;11.88;;;;;;;14.61;94.38;97694.19;1739498;82;21309;-85
2022/09/25 10:24:53;;;;;;;13.68;8.63;;;;;;;14.66;93.51;97688.61;1709943;83;21098;-89
2022/09/25 10:27:44;;;;;;;14.75;10.43;;;;;;;14.72;92.79;97690.66;1710005;82;21039;-88
2022/09/25 10:30:16;;;;;;;16.32;11.08;;;;;;;14.71;91.98;97682.23;1727437;83;21873;-88
2022/09/25 10:33:03;;;;;;;13.80;9.90;;;;;;;14.70;92.27;97684.69;1727710;81;21452;-85
2022/09/25 10:35:40;;;;;;;16.90;12.82;;;;;;;14.69;91.96;97686.61;1698910;83;21055;-84
2022/09/25 10:38:40;;;;;;;30.75;20.50;;;;;;;14.67;92.14;97682.03;1720973;81;21077;-84
2022/09/25 10:41:12;;;;;;;18.17;13.55;;;;;;;14.63;91.84;97690.61;1727663;83;21628;-89
2022/09/25 10:43:54;;;;;;;15.23;8.90;;;;;;;14.57;92.64;97687.21;1744903;80;21233;-84
2022/09/25 10:52:14;;;;;;;15.75;10.25;;;;;;;14.67;93.88;97682.03;1747220;80;21462;-88
2022/09/25 10:54:40;;;;;;;14.45;8.78;;;;;;;14.73;93.83;97679.42;1747326;82;21152;-84
2022/09/25 10:57:36;;;;;;;14.80;9.90;;;;;;;14.77;93.25;97678.22;1747377;80;21258;-89
2022/09/25 11:00:06;;;;;;;17.02;11.12;;;;;;;14.81;93.26;97674.56;1747034;81;20998;-85
2022/09/25 11:02:38;;;;;;;18.07;9.65;;;;;;;14.93;93.43;97667.94;1744667;80;21037;-84
2022/09/25 11:05:07;;;;;;;13.28;10.05;;;;;;;14.98;93.12;97662.11;1747244;82;21462;-85
2022/09/25 11:07:33;;;;;;;15.38;10.32;;;;;;;14.96;92.54;97661.06;1717960;82;21124;-88
2022/09/25 11:09:59;;;;;;;14.63;9.93;;;;;;;14.94;92.18;97665.45;1747176;81;21169;-88
2022/09/25 11:12:28;;;;;;;14.50;9.25;;;;;;;14.98;93.02;97667.56;1747117;80;20985;-84
2022/09/25 11:15:00;;;;;;;12.33;9.03;;;;;;;14.94;92.37;97668.73;1747273;82;21028;-89
2022/09/25 11:17:34;;;;;;;12.25;8.85;;;;;;;14.96;92.17;97663.80;1747052;80;21089;-88
2022/09/25 11:20:28;;;;;;;13.38;9.08;;;;;;;14.99;91.83;97663.70;1746597;80;21422;-85
2022/09/25 11:23:20;;;;;;;11.88;8.43;;;;;;;15.03;92.02;97665.47;1750134;81;21812;-85
2022/09/25 11:26:06;;;;;;;11.88;8.88;;;;;;;15.12;92.96;97666.30;1720320;81;21001;-88
2022/09/25 11:28:56;;;;;;;12.43;9.53;;;;;;;15.13;92.54;97661.11;1773384;80;21016;-85
2022/09/25 11:31:36;;;;;;;11.90;9.25;;;;;;;15.12;92.45;97664.13;1773414;80;21480;-88
2022/09/25 11:34:36;;;;;;;12.78;9.75;;;;;;;15.11;92.94;97660.59;1757709;81;21024;-85
2022/09/25 11:37:23;;;;;;;16.65;10.05;;;;;;;15.15;92.90;97655.33;1750083;81;22101;-88
2022/09/25 11:43:00;;;;;;;13.68;10.10;;;;;;;15.23;92.84;97655.91;1752260;80;21036;-84
2022/09/25 11:45:50;;;;;;;16.55;8.20;;;;;;;15.27;93.29;97653.33;1732794;82;21543;-84
2022/09/25 11:48:21;;;;;;;10.18;7.83;;;;;;;15.28;93.01;97660.39;1724632;81;21474;-88
2022/09/25 11:51:12;;;;;;;12.07;9.30;;;;;;;15.27;93.09;97651.41;1733042;82;21950;-88
2022/09/25 11:54:02;;;;;;;16.00;8.45;;;;;;;15.21;92.01;97660.86;1732426;81;21036;-89
2022/09/25 11:56:39;;;;;;;13.32;8.05;;;;;;;15.17;92.21;97653.08;1732416;82;21024;-88
2022/09/25 11:59:23;;;;;;;12.20;9.43;;;;;;;15.24;92.28;97647.95;1733103;81;20993;-84
2022/09/25 12:02:18;;;;;;;19.48;11.70;;;;;;;15.30;92.43;97633.61;1718816;82;21009;-85
2022/09/25 12:05:19;;;;;;;12.37;9.33;;;;;;;15.32;91.62;97632.72;1733219;82;21470;-88